Aérodrome :
LOGIN :

S'inscrire | Disclaimer

   EN    FR    IT 

 










Légende :    VFR   VFR Marginal   IFR   IFR Intensif   IFR Très Intensif
Visi : 
Plafond : 
>= 8 km
>= 3000ft
5 à 8 km
1000 à 3000 ft
1500m à 5 km
500 à 1000 ft
800 à 1500m
200 à 500 ft
< 800m
< 200 ft
Symboles :   Orages  Brouillard  Fortes neiges  Fortes précipitations  Vent > 20 kt
SIGMETs :   Divers  Orages  Givrage  Turbulence  Onde Orograph.  Cendres Volcan.






- Altitude de l'aérodrome : 14 ft
- Code IATA : BRE


EDDW - Bremen Neuenland

DERNIER METAR :
  • 090020Z 31005KT CAVOK 09/06 Q1023

METARs EXPIRÉS :
  • 082350Z 32005KT CAVOK 09/06 Q1023
  • 082320Z 32005KT CAVOK 10/07 Q1023
  • 082250Z 30005KT CAVOK 09/06 Q1023
  • 082220Z 31006KT CAVOK 10/07 Q1023
  • 082150Z 30004KT CAVOK 10/06 Q1023

TAF TAF EDDW
Valide du 09 à 00h jusqu'au 10 à 00h UTC


082300Z 0900/0924 33004KT CAVOK
BECMG 0907/0909 33010KT
PROB30
TEMPO 0913/0916 34015KT
BECMG 0920/0922 36005KT



MET'MAP, la Météo Aéronautique d'un coup d'oeil ! - Copyright ORBIFLY Décembre 2007 - Disclaimer

ORBIFLY MET'MAP TEAM :

Programmation & Développement : Alexandra Zaïnal
Sur une idée originale de : Baudouin d'Aumeries
Assistance à la programmation : Marc-Olivier Méhu
Soutien technique & logistique : Manuel Goepfert

Contact : metmap@orbifly.com




SOURCES & CREDITS :

   NOAA